createdAt,value
2022-09-10T00:01:29.810Z,100407.67
2022-09-10T00:03:57.784Z,100407.12
2022-09-10T00:06:27.792Z,100409.41
2022-09-10T00:08:59.201Z,100404.23
2022-09-10T00:11:32.235Z,100399.51
2022-09-10T00:14:00.958Z,100401.42
2022-09-10T00:16:28.565Z,100404.64
2022-09-10T00:18:57.413Z,100395.73
2022-09-10T00:21:24.355Z,100389.45
2022-09-10T00:23:51.133Z,100380.59
2022-09-10T00:26:24.671Z,100380.58
2022-09-10T00:28:52.965Z,100372.21
2022-09-10T00:31:22.085Z,100371.49
2022-09-10T00:33:50.818Z,100369.84
2022-09-10T00:36:30.537Z,100369.00
2022-09-10T00:39:00.601Z,100364.63
2022-09-10T00:41:27.902Z,100365.45
2022-09-10T00:44:02.799Z,100360.38
2022-09-10T00:46:43.591Z,100358.73
2022-09-10T00:49:21.620Z,100357.85
2022-09-10T00:51:52.574Z,100358.44
2022-09-10T00:54:24.381Z,100360.96
2022-09-10T00:56:53.727Z,100359.92
2022-09-10T00:59:23.836Z,100360.38
2022-09-10T01:01:50.760Z,100360.48
2022-09-10T01:04:17.837Z,100359.44
2022-09-10T01:06:46.691Z,100355.27
2022-09-10T01:09:15.317Z,100360.75
2022-09-10T01:11:57.623Z,100360.84
2022-09-10T01:14:51.868Z,100359.20
2022-09-10T01:17:25.933Z,100354.46
2022-09-10T01:20:30.485Z,100354.09
2022-09-10T01:23:17.033Z,100355.02
2022-09-10T01:26:03.604Z,100355.14
2022-09-10T01:28:49.594Z,100354.48
2022-09-10T01:31:31.626Z,100347.55
2022-09-10T01:34:17.006Z,100345.56
2022-09-10T01:36:49.227Z,100338.79
2022-09-10T01:39:20.949Z,100340.44
2022-09-10T01:41:52.955Z,100336.21
2022-09-10T01:44:47.681Z,100333.73
2022-09-10T01:47:40.327Z,100338.81
2022-09-10T01:50:10.108Z,100336.93
2022-09-10T01:52:47.408Z,100329.20
2022-09-10T01:55:45.242Z,100324.71
2022-09-10T01:58:19.177Z,100321.91
2022-09-10T02:01:07.458Z,100317.55
2022-09-10T02:03:37.585Z,100314.50
2022-09-10T02:06:09.647Z,100312.40
2022-09-10T02:08:43.196Z,100313.23
2022-09-10T02:11:12.932Z,100316.48
2022-09-10T02:13:43.236Z,100310.43
2022-09-10T02:16:31.437Z,100306.49
2022-09-10T02:19:00.882Z,100307.90
2022-09-10T02:21:28.342Z,100306.23
2022-09-10T02:24:00.040Z,100304.99
2022-09-10T02:26:27.866Z,100299.16
2022-09-10T02:28:54.980Z,100296.08
2022-09-10T02:31:22.867Z,100297.60
2022-09-10T02:33:49.833Z,100296.84
2022-09-10T02:36:16.759Z,100294.16
2022-09-10T02:38:44.571Z,100294.11
2022-09-10T02:41:11.754Z,100293.60
2022-09-10T02:43:38.865Z,100291.49
2022-09-10T02:46:07.598Z,100287.77
2022-09-10T02:48:36.103Z,100281.79
2022-09-10T02:51:03.542Z,100286.19
2022-09-10T02:53:31.861Z,100284.59
2022-09-10T02:56:03.400Z,100283.83
2022-09-10T02:58:34.332Z,100288.39
2022-09-10T03:01:28.802Z,100282.95
2022-09-10T03:04:01.690Z,100280.89
2022-09-10T03:06:29.662Z,100277.95
2022-09-10T03:08:58.503Z,100280.61
2022-09-10T03:11:27.622Z,100284.52
2022-09-10T03:13:55.637Z,100279.52
2022-09-10T03:16:24.614Z,100279.17
2022-09-10T03:18:52.598Z,100273.05
2022-09-10T03:21:23.419Z,100272.55
2022-09-10T03:23:52.842Z,100267.61
2022-09-10T03:26:28.314Z,100276.45
2022-09-10T03:28:55.382Z,100275.05
2022-09-10T03:31:24.890Z,100275.06
2022-09-10T03:33:51.819Z,100274.99
2022-09-10T03:36:21.073Z,100275.13
2022-09-10T03:38:49.334Z,100281.17
2022-09-10T03:41:16.345Z,100284.52
2022-09-10T03:43:43.365Z,100290.29
2022-09-10T03:46:12.277Z,100291.41
2022-09-10T03:48:43.838Z,100283.16
2022-09-10T03:51:11.140Z,100278.34
2022-09-10T03:53:39.072Z,100278.35
2022-09-10T03:56:07.409Z,100281.10
2022-09-10T03:58:35.993Z,100288.13
2022-09-10T04:01:04.255Z,100291.77
2022-09-10T04:03:31.739Z,100294.30
2022-09-10T04:05:58.850Z,100293.21
2022-09-10T04:08:26.003Z,100298.30
2022-09-10T04:10:53.392Z,100299.20
2022-09-10T04:13:20.247Z,100296.56
2022-09-10T04:15:47.446Z,100292.57
2022-09-10T04:18:15.035Z,100289.71
2022-09-10T04:20:43.853Z,100292.33
2022-09-10T04:23:10.915Z,100297.39
2022-09-10T04:25:40.038Z,100293.45
2022-09-10T04:28:09.756Z,100287.88
2022-09-10T04:30:38.037Z,100279.23
2022-09-10T04:33:05.414Z,100268.70
2022-09-10T04:35:33.058Z,100261.14
2022-09-10T04:38:02.262Z,100255.55
2022-09-10T04:40:29.734Z,100249.80
2022-09-10T04:42:56.742Z,100251.34
2022-09-10T04:45:24.062Z,100248.34
2022-09-10T04:47:53.295Z,100249.35
2022-09-10T04:50:22.354Z,100247.05
2022-09-10T04:53:08.322Z,100235.16
2022-09-10T04:55:39.641Z,100235.08
